Time,TemperatureF,DewpointF,PressureIn,WindDirection,WindDirectionDegrees,WindSpeedMPH,WindSpeedGustMPH,Humidity,HourlyPrecipIn,Conditions,Clouds,dailyrainin,SolarRadiationWatts/m^2,SoftwareType,DateUTC
2013-04-29 00:02:00,47.0,42.0,-100.00,WSW,244,5.0,8.0,82,0.00,,,0.01,0.000000,,2013-04-29 05:02:00,
2013-04-29 00:32:00,45.0,39.0,-100.00,West,276,3.0,8.0,79,0.00,,,0.01,0.000000,,2013-04-29 05:32:00,
2013-04-29 00:42:00,45.0,39.0,-100.00,West,276,3.0,8.0,79,0.00,,,0.01,0.000000,,2013-04-29 05:42:00,
2013-04-29 00:52:00,45.0,39.0,-100.00,West,276,3.0,8.0,79,0.00,,,0.01,0.000000,,2013-04-29 05:52:00,
2013-04-29 01:02:00,45.0,39.0,-100.00,West,276,3.0,8.0,79,0.00,,,0.01,0.000000,,2013-04-29 06:02:00,
2013-04-29 01:22:00,42.0,36.0,-100.00,West,268,3.0,6.0,80,0.00,,,0.01,0.000000,,2013-04-29 06:22:00,
2013-04-29 01:32:00,42.0,36.0,-100.00,West,268,3.0,6.0,80,0.00,,,0.01,0.000000,,2013-04-29 06:32:00,
2013-04-29 01:42:00,42.0,36.0,-100.00,West,268,3.0,6.0,80,0.00,,,0.01,0.000000,,2013-04-29 06:42:00,
2013-04-29 01:52:00,42.0,36.0,-100.00,West,268,3.0,6.0,80,0.00,,,0.01,0.000000,,2013-04-29 06:52:00,
2013-04-29 02:01:00,42.0,36.0,-100.00,West,268,3.0,6.0,80,0.00,,,0.01,0.000000,,2013-04-29 07:01:00,
2013-04-29 02:32:00,40.0,33.0,-100.00,WNW,283,3.0,5.0,77,0.00,,,0.01,0.000000,,2013-04-29 07:32:00,
2013-04-29 02:42:00,40.0,33.0,-100.00,WNW,283,3.0,5.0,77,0.00,,,0.01,0.000000,,2013-04-29 07:42:00,
2013-04-29 02:52:00,40.0,33.0,-100.00,WNW,283,3.0,5.0,77,0.00,,,0.01,0.000000,,2013-04-29 07:52:00,
2013-04-29 03:03:00,40.0,33.0,-100.00,WNW,283,3.0,5.0,77,0.00,,,0.01,0.000000,,2013-04-29 08:03:00,
2013-04-29 03:22:00,38.0,27.0,-100.00,West,270,3.0,7.0,64,0.00,,,0.01,0.000000,,2013-04-29 08:22:00,
2013-04-29 03:32:00,38.0,27.0,-100.00,West,270,3.0,7.0,64,0.00,,,0.01,0.000000,,2013-04-29 08:32:00,
2013-04-29 03:42:00,38.0,27.0,-100.00,West,270,3.0,7.0,64,0.00,,,0.01,0.000000,,2013-04-29 08:42:00,
2013-04-29 03:52:00,38.0,27.0,-100.00,West,270,3.0,7.0,64,0.00,,,0.01,0.000000,,2013-04-29 08:52:00,
2013-04-29 04:01:00,38.0,27.0,-100.00,West,270,3.0,7.0,64,0.00,,,0.01,0.000000,,2013-04-29 09:01:00,
2013-04-29 04:22:00,36.0,25.0,-100.00,West,267,3.0,5.0,63,0.00,,,0.01,0.000000,,2013-04-29 09:22:00,
2013-04-29 04:33:00,36.0,25.0,-100.00,West,267,3.0,5.0,63,0.00,,,0.01,0.000000,,2013-04-29 09:33:00,
2013-04-29 04:42:00,36.0,25.0,-100.00,West,267,3.0,5.0,63,0.00,,,0.01,0.000000,,2013-04-29 09:42:00,
2013-04-29 04:53:00,36.0,25.0,-100.00,West,267,3.0,5.0,63,0.00,,,0.01,0.000000,,2013-04-29 09:53:00,
2013-04-29 05:02:00,36.0,25.0,-100.00,West,267,3.0,5.0,63,0.00,,,0.01,0.000000,,2013-04-29 10:02:00,
2013-04-29 05:32:00,34.0,23.0,-100.00,WNW,282,4.0,6.0,65,0.00,,,0.01,0.000000,,2013-04-29 10:32:00,
2013-04-29 05:42:00,34.0,23.0,-100.00,WNW,282,4.0,6.0,65,0.00,,,0.01,0.000000,,2013-04-29 10:42:00,
2013-04-29 05:52:00,34.0,23.0,-100.00,WNW,282,4.0,6.0,65,0.00,,,0.01,0.000000,,2013-04-29 10:52:00,
2013-04-29 06:02:00,34.0,23.0,-100.00,WNW,282,4.0,6.0,65,0.00,,,0.01,0.000000,,2013-04-29 11:02:00,
2013-04-29 06:22:00,33.0,24.0,-100.00,WNW,284,4.0,6.0,68,0.00,,,0.01,2.000000,,2013-04-29 11:22:00,
2013-04-29 06:32:00,33.0,24.0,-100.00,WNW,284,4.0,6.0,68,0.00,,,0.01,2.000000,,2013-04-29 11:32:00,
2013-04-29 06:42:00,33.0,24.0,-100.00,WNW,284,4.0,6.0,68,0.00,,,0.01,2.000000,,2013-04-29 11:42:00,
2013-04-29 06:52:00,33.0,24.0,-100.00,WNW,284,4.0,6.0,68,0.00,,,0.01,2.000000,,2013-04-29 11:52:00,
2013-04-29 07:01:00,33.0,24.0,-100.00,WNW,284,4.0,6.0,68,0.00,,,0.01,2.000000,,2013-04-29 12:01:00,
2013-04-29 07:22:00,36.0,25.0,-100.00,WNW,302,3.0,6.0,65,0.00,,,0.01,80.000000,,2013-04-29 12:22:00,
2013-04-29 07:32:00,36.0,25.0,-100.00,WNW,302,3.0,6.0,65,0.00,,,0.01,80.000000,,2013-04-29 12:32:00,
2013-04-29 07:42:00,36.0,25.0,-100.00,WNW,302,3.0,6.0,65,0.00,,,0.01,80.000000,,2013-04-29 12:42:00,
2013-04-29 07:52:00,36.0,25.0,-100.00,WNW,302,3.0,6.0,65,0.00,,,0.01,80.000000,,2013-04-29 12:52:00,
2013-04-29 08:01:00,36.0,25.0,-100.00,WNW,302,3.0,6.0,65,0.00,,,0.01,80.000000,,2013-04-29 13:01:00,
2013-04-29 08:21:00,41.0,27.0,-100.00,NNW,337,4.0,7.0,56,0.00,,,0.01,275.000000,,2013-04-29 13:21:00,
2013-04-29 08:32:00,41.0,27.0,-100.00,NNW,337,4.0,7.0,56,0.00,,,0.01,275.000000,,2013-04-29 13:32:00,
2013-04-29 08:42:00,41.0,27.0,-100.00,NNW,337,4.0,7.0,56,0.00,,,0.01,275.000000,,2013-04-29 13:42:00,
2013-04-29 08:52:00,41.0,27.0,-100.00,NNW,337,4.0,7.0,56,0.00,,,0.01,275.000000,,2013-04-29 13:52:00,
2013-04-29 09:02:00,41.0,27.0,-100.00,NNW,337,4.0,7.0,56,0.00,,,0.01,275.000000,,2013-04-29 14:02:00,
2013-04-29 09:22:00,47.0,27.0,-100.00,NE,50,4.0,9.0,46,0.00,,,0.01,489.000000,,2013-04-29 14:22:00,
2013-04-29 09:32:00,47.0,27.0,-100.00,NE,50,4.0,9.0,46,0.00,,,0.01,489.000000,,2013-04-29 14:32:00,
2013-04-29 09:42:00,47.0,27.0,-100.00,NE,50,4.0,9.0,46,0.00,,,0.01,489.000000,,2013-04-29 14:42:00,
2013-04-29 09:52:00,47.0,27.0,-100.00,NE,50,4.0,9.0,46,0.00,,,0.01,489.000000,,2013-04-29 14:52:00,
2013-04-29 10:01:00,47.0,27.0,-100.00,NE,50,4.0,9.0,46,0.00,,,0.01,489.000000,,2013-04-29 15:01:00,
2013-04-29 10:33:00,51.0,28.0,-100.00,East,99,4.0,7.0,41,0.00,,,0.01,674.000000,,2013-04-29 15:33:00,
2013-04-29 10:43:00,51.0,28.0,-100.00,East,99,4.0,7.0,41,0.00,,,0.01,674.000000,,2013-04-29 15:43:00,
2013-04-29 10:53:00,51.0,28.0,-100.00,East,99,4.0,7.0,41,0.00,,,0.01,674.000000,,2013-04-29 15:53:00,
2013-04-29 11:02:00,51.0,28.0,-100.00,East,99,4.0,7.0,41,0.00,,,0.01,674.000000,,2013-04-29 16:02:00,
2013-04-29 11:33:00,56.0,29.0,-100.00,SE,132,4.0,8.0,36,0.00,,,0.01,855.000000,,2013-04-29 16:33:00,
2013-04-29 11:42:00,56.0,29.0,-100.00,SE,132,4.0,8.0,36,0.00,,,0.01,855.000000,,2013-04-29 16:42:00,
2013-04-29 11:52:00,56.0,29.0,-100.00,SE,132,4.0,8.0,36,0.00,,,0.01,855.000000,,2013-04-29 16:52:00,
2013-04-29 12:02:00,56.0,29.0,-100.00,SE,132,4.0,8.0,36,0.00,,,0.01,855.000000,,2013-04-29 17:02:00,
2013-04-29 12:32:00,58.0,20.0,-100.00,SSE,151,5.0,12.0,23,0.00,,,0.01,973.000000,,2013-04-29 17:32:00,
2013-04-29 12:42:00,58.0,20.0,-100.00,SSE,151,5.0,12.0,23,0.00,,,0.01,973.000000,,2013-04-29 17:42:00,
2013-04-29 12:52:00,58.0,20.0,-100.00,SSE,151,5.0,12.0,23,0.00,,,0.01,973.000000,,2013-04-29 17:52:00,
2013-04-29 13:01:00,58.0,20.0,-100.00,SSE,151,5.0,12.0,23,0.00,,,0.01,973.000000,,2013-04-29 18:01:00,
2013-04-29 13:22:00,60.0,24.0,-100.00,South,188,5.0,10.0,25,0.00,,,0.01,1031.000000,,2013-04-29 18:22:00,
2013-04-29 13:32:00,60.0,24.0,-100.00,South,188,5.0,10.0,25,0.00,,,0.01,1031.000000,,2013-04-29 18:32:00,
2013-04-29 13:42:00,60.0,24.0,-100.00,South,188,5.0,10.0,25,0.00,,,0.01,1031.000000,,2013-04-29 18:42:00,
2013-04-29 13:52:00,60.0,24.0,-100.00,South,188,5.0,10.0,25,0.00,,,0.01,1031.000000,,2013-04-29 18:52:00,
2013-04-29 14:01:00,60.0,24.0,-100.00,South,188,5.0,10.0,25,0.00,,,0.01,1031.000000,,2013-04-29 19:01:00,
2013-04-29 14:22:00,62.0,22.0,-100.00,WSW,244,4.0,9.0,21,0.00,,,0.01,1026.000000,,2013-04-29 19:22:00,
2013-04-29 14:32:00,62.0,22.0,-100.00,WSW,244,4.0,9.0,21,0.00,,,0.01,1026.000000,,2013-04-29 19:32:00,
2013-04-29 14:42:00,62.0,22.0,-100.00,WSW,244,4.0,9.0,21,0.00,,,0.01,1026.000000,,2013-04-29 19:42:00,
2013-04-29 14:52:00,62.0,22.0,-100.00,WSW,244,4.0,9.0,21,0.00,,,0.01,1026.000000,,2013-04-29 19:52:00,
2013-04-29 15:02:00,62.0,22.0,-100.00,WSW,244,4.0,9.0,21,0.00,,,0.01,1026.000000,,2013-04-29 20:02:00,
2013-04-29 15:32:00,65.0,22.0,-100.00,South,173,4.0,11.0,19,0.00,,,0.01,949.000000,,2013-04-29 20:32:00,
2013-04-29 15:42:00,65.0,22.0,-100.00,South,173,4.0,11.0,19,0.00,,,0.01,949.000000,,2013-04-29 20:42:00,
2013-04-29 15:52:00,65.0,22.0,-100.00,South,173,4.0,11.0,19,0.00,,,0.01,949.000000,,2013-04-29 20:52:00,
2013-04-29 16:01:00,65.0,22.0,-100.00,South,173,4.0,11.0,19,0.00,,,0.01,949.000000,,2013-04-29 21:01:00,
2013-04-29 16:22:00,65.0,16.0,-100.00,South,173,5.0,11.0,15,0.00,,,0.01,754.000000,,2013-04-29 21:22:00,
2013-04-29 16:33:00,65.0,16.0,-100.00,South,173,5.0,11.0,15,0.00,,,0.01,754.000000,,2013-04-29 21:33:00,
2013-04-29 16:43:00,65.0,16.0,-100.00,South,173,5.0,11.0,15,0.00,,,0.01,754.000000,,2013-04-29 21:43:00,
2013-04-29 16:53:00,65.0,16.0,-100.00,South,173,5.0,11.0,15,0.00,,,0.01,754.000000,,2013-04-29 21:53:00,
2013-04-29 17:02:00,65.0,16.0,-100.00,South,173,5.0,11.0,15,0.00,,,0.01,754.000000,,2013-04-29 22:02:00,
2013-04-29 17:32:00,65.0,15.0,-100.00,SSW,201,5.0,12.0,14,0.00,,,0.01,580.000000,,2013-04-29 22:32:00,
2013-04-29 17:42:00,65.0,15.0,-100.00,SSW,201,5.0,12.0,14,0.00,,,0.01,580.000000,,2013-04-29 22:42:00,
2013-04-29 17:53:00,65.0,15.0,-100.00,SSW,201,5.0,12.0,14,0.00,,,0.01,580.000000,,2013-04-29 22:53:00,
2013-04-29 18:02:00,65.0,15.0,-100.00,SSW,201,5.0,12.0,14,0.00,,,0.01,580.000000,,2013-04-29 23:02:00,
2013-04-29 18:32:00,65.0,18.0,-100.00,SSW,203,4.0,10.0,16,0.00,,,0.01,382.000000,,2013-04-29 23:32:00,
2013-04-29 18:42:00,65.0,18.0,-100.00,SSW,203,4.0,10.0,16,0.00,,,0.01,382.000000,,2013-04-29 23:42:00,
2013-04-29 18:52:00,65.0,18.0,-100.00,SSW,203,4.0,10.0,16,0.00,,,0.01,382.000000,,2013-04-29 23:52:00,
2013-04-29 19:01:00,65.0,18.0,-100.00,SSW,203,4.0,10.0,16,0.00,,,0.01,382.000000,,2013-04-30 00:01:00,
2013-04-29 19:32:00,60.0,21.0,-100.00,SE,146,6.0,14.0,22,0.00,,,0.01,161.000000,,2013-04-30 00:32:00,
2013-04-29 19:42:00,60.0,21.0,-100.00,SE,146,6.0,14.0,22,0.00,,,0.01,161.000000,,2013-04-30 00:42:00,
2013-04-29 19:52:00,60.0,21.0,-100.00,SE,146,6.0,14.0,22,0.00,,,0.01,161.000000,,2013-04-30 00:52:00,
2013-04-29 20:02:00,60.0,21.0,-100.00,SE,146,6.0,14.0,22,0.00,,,0.01,161.000000,,2013-04-30 01:02:00,
2013-04-29 21:21:00,52.0,23.0,-100.00,SE,125,5.0,7.0,32,-99.99,,,-99.99,2.000000,,2013-04-30 02:21:00,
2013-04-29 21:32:00,52.0,23.0,-100.00,SE,125,5.0,7.0,32,-99.99,,,-99.99,2.000000,,2013-04-30 02:32:00,
2013-04-29 21:42:00,52.0,23.0,-100.00,SE,125,5.0,7.0,32,-99.99,,,-99.99,2.000000,,2013-04-30 02:42:00,
2013-04-29 21:51:00,52.0,23.0,-100.00,SE,125,5.0,7.0,32,-99.99,,,-99.99,2.000000,,2013-04-30 02:51:00,
2013-04-29 22:01:00,52.0,23.0,-100.00,SE,125,5.0,7.0,32,-99.99,,,-99.99,2.000000,,2013-04-30 03:01:00,